LSGC 200050Z AUTO VRB01KT 9999 NSC 15/13 Q1026 LSGC 200020Z AUTO 00000KT 9999 NSC 16/13 Q1026 LSGC 192350Z AUTO VRB01KT 9999 NCD 14/12 Q1026 LSGC 192320Z AUTO 00000KT 9999 NSC 14/11 Q1026 LSGC 192250Z AUTO 00000KT 9999 NCD 14/11 Q1026 LSGC 192220Z AUTO VRB01KT 9999 NCD 14/11 Q1026 LSGC 192150Z AUTO 00000KT 9999 NCD 14/11 Q1026 LSGC 192120Z AUTO 00000KT 9999 NSC 14/11 Q1026 LSGC 192050Z AUTO 00000KT 9999 NCD 16/12 Q1026 LSGC 192020Z AUTO VRB01KT 9999 NSC 16/11 Q1026 LSGC 191950Z AUTO 00000KT 9999 NSC 17/11 Q1026 LSGC 191920Z AUTO VRB01KT 9999 NSC 17/11 Q1026 LSGC 191850Z AUTO VRB01KT 9999 NSC 19/10 Q1026 LSGC 191820Z AUTO 28003KT 230V310 9999 NSC 21/09 Q1025 LSGC 191750Z 27003KT CAVOK 22/09 Q1025 LSGC 191720Z 25006KT 200V300 CAVOK 23/08 Q1025 LSGC 191650Z 26008KT 230V300 CAVOK 23/10 Q1025 LSGC 191620Z 17004KT 130V240 CAVOK 24/12 Q1025 LSGC 191550Z 23007KT 180V270 9999 //////TCU 23/11 Q1025 LSGC 191520Z 22007KT 160V270 9999 VCTS FEW055CB 23/11 Q1025 LSGC 191450Z 19009KT 160V230 9999 TS BKN050CB 22/12 Q1025 LSGC 191420Z 24008KT 210V290 9999 TS FEW055CB 23/11 Q1025 LSGC 191350Z AUTO 28006KT 210V010 9999 SCT///CB 24/13 Q1025 LSGC 191320Z 26007KT 220V290 9999 SCT///CB 22/11 Q1025 LSGC 191250Z AUTO 25009KT 210V280 9999 //////TCU 23/10 Q1025 LSGC 191220Z AUTO 27012G23KT 230V320 9999 SCT///CB 24/11 Q1025 LSGC 191150Z AUTO 26012G22KT 220V010 9999 TS SCT///CB 24/10 Q1025 LSGC 191120Z 25012KT 220V290 CAVOK 23/10 Q1025 LSGC 191050Z 23009KT 180V270 CAVOK 24/09 Q1025 LSGC 191020Z 20010KT 090V260 CAVOK 24/10 Q1025 LSGC 190950Z 20011KT 150V240 CAVOK 24/10 Q1025 LSGC 190920Z 20011KT 160V250 CAVOK 23/10 Q1025 LSGC 190850Z 19010KT 160V240 CAVOK 22/10 Q1025 LSGC 190820Z 22007KT 150V270 CAVOK 21/11 Q1025 LSGC 190750Z 23008KT 200V260 CAVOK 21/11 Q1025 LSGC 190720Z AUTO 23006KT 190V270 9999 NSC 21/11 Q1025 LSGC 190650Z VRB03KT CAVOK 20/11 Q1025 LSGC 190620Z AUTO VRB03KT 9999 NCD 19/12 Q1025 LSGC 190550Z AUTO 23002KT 9999 NCD 18/12 Q1025 LSGC 190520Z AUTO VRB01KT 9999 NCD 16/12 Q1024 LSGC 190450Z AUTO VRB01KT 9999 NCD 15/11 Q1024 LSGC 190420Z AUTO 32001KT 9999 NCD 13/10 Q1024 LSGC 190350Z AUTO VRB02KT 9999 NCD 14/11 Q1024 LSGC 190320Z AUTO VRB02KT 9999 NCD 13/10 Q1024 LSGC 190250Z AUTO 25001KT 9999 NCD 13/10 Q1024 LSGC 190220Z AUTO VRB01KT 9999 NCD 13/10 Q1023 LSGC 190150Z AUTO VRB01KT 9999 NCD 14/10 Q1023 LSGC 190120Z AUTO 24002KT 9999 NCD 13/10 Q1023 LSGC 190050Z AUTO VRB01KT 9999 NCD 13/09 Q1023 LSGC 190020Z AUTO 00000KT 9999 NCD 13/09 Q1023 LSGC 182350Z AUTO 00000KT 9999 NCD 13/09 Q1024 LSGC 182320Z AUTO VRB01KT 9999 NCD 13/09 Q1023 LSGC 182250Z AUTO VRB01KT 9999 NCD 14/09 Q1023 LSGC 182220Z AUTO VRB01KT 9999 NCD 13/08 Q1023 LSGC 182150Z AUTO VRB02KT 9999 NCD 15/10 Q1023 LSGC 182120Z AUTO VRB01KT 9999 NCD 14/09 Q1023 LSGC 182050Z AUTO 00000KT 9999 NCD 15/10 Q1023 LSGC 182020Z AUTO VRB01KT 9999 NCD 16/10 Q1023 LSGC 181950Z AUTO VRB01KT 9999 NCD 16/09 Q1023 LSGC 181920Z AUTO VRB03KT 9999 NCD 17/09 Q1023 LSGC 181850Z AUTO 02003KT 340V080 9999 NCD 18/09 Q1022 LSGC 181820Z AUTO VRB02KT 9999 NCD 20/09 Q1022 LSGC 181750Z VRB03KT CAVOK 22/08 Q1022 LSGC 181720Z 10005KT 070V150 CAVOK 22/06 Q1022 LSGC 181650Z 11006KT 050V190 CAVOK 23/06 Q1022 LSGC 181620Z 13005KT 050V180 CAVOK 23/08 Q1022 LSGC 181550Z 15007KT 110V180 CAVOK 24/08 Q1022 LSGC 181520Z 13005KT 090V200 CAVOK 24/07 Q1022 LSGC 181450Z AUTO 14005KT 090V180 9999 NCD 24/08 Q1023 LSGC 181420Z AUTO 10004KT 020V160 9999 NCD 24/08 Q1023 LSGC 181350Z 15004KT 090V220 CAVOK 24/08 Q1023 LSGC 181320Z VRB03KT 9999 SCT048 23/09 Q1023

METAR Messwerte "LES EPLATURES" LSGC

Zurück zur Übersicht

Ortsname
Ländercode / m ü. NN
Zeit Temperatur Taupunkt Rel.
Luftfeuchte
Luftdruck:
Altimeter
NN
Station
Wind in Beaufort
(Knoten)
Sichtweite
(Meter)
Wolken
(Meter über Grund)
Wettererscheinung
LES EPLATURES
CH 1018
Fr 20.05. 02:50151388 %1026
1026
908
Uml 1 (1)>= 10000Nicht signifikant 
LES EPLATURES
CH 1018
Fr 20.05. 02:20161382 %1026
1026
908
Windstill>= 10000Nicht signifikant 
LES EPLATURES
CH 1018
Fr 20.05. 01:50141288 %1026
1027
908
Uml 1 (1)>= 10000  
LES EPLATURES
CH 1018
Fr 20.05. 01:20141182 %1026
1027
908
Windstill>= 10000Nicht signifikant 
LES EPLATURES
CH 1018
Fr 20.05. 00:50141182 %1026
1027
908
Windstill>= 10000  
LES EPLATURES
CH 1018
Fr 20.05. 00:20141182 %1026
1027
908
Uml 1 (1)>= 10000  
LES EPLATURES
CH 1018
Do 19.05. 23:50141182 %1026
1027
908
Windstill>= 10000  
LES EPLATURES
CH 1018
Do 19.05. 23:20141182 %1026
1027
908
Windstill>= 10000Nicht signifikant 
LES EPLATURES
CH 1018
Do 19.05. 22:50161277 %1026
1026
908
Windstill>= 10000  
LES EPLATURES
CH 1018
Do 19.05. 22:20161172 %1026
1026
908
Uml 1 (1)>= 10000Nicht signifikant 
LES EPLATURES
CH 1018
Do 19.05. 21:50171168 %1026
1025
908
Windstill>= 10000Nicht signifikant 
LES EPLATURES
CH 1018
Do 19.05. 21:20171168 %1026
1025
908
Uml 1 (1)>= 10000Nicht signifikant 
LES EPLATURES
CH 1018
Do 19.05. 20:50191056 %1026
1025
908
Uml 1 (1)>= 10000Nicht signifikant 
LES EPLATURES
CH 1018
Do 19.05. 20:2021946 %1025
1023
907
W 2 (3)
SW - NW
>= 10000Nicht signifikant 
LES EPLATURES
CH 1018
Do 19.05. 19:5022943 %1025
1022
907
W 2 (3)>= 10000Nicht signifikant 
LES EPLATURES
CH 1018
Do 19.05. 19:2023838 %1025
1022
907
WSW 2 (6)
SSW - WNW
>= 10000Nicht signifikant 
LES EPLATURES
CH 1018
Do 19.05. 18:50231044 %1025
1022
907
W 3 (8)
SW - WNW
>= 10000Nicht signifikant 
LES EPLATURES
CH 1018
Do 19.05. 18:20241247 %1025
1021
907
S 2 (4)
SO - WSW
>= 10000Nicht signifikant 
LES EPLATURES
CH 1018
Do 19.05. 17:50231147 %1025
1022
907
SW 3 (7)
S - W
>= 10000  
LES EPLATURES
CH 1018
Do 19.05. 17:20231147 %1025
1022
907
SW 3 (7)
SSO - W
>= 10000Leicht bewölkt Cb (1700) 
LES EPLATURES
CH 1018
Do 19.05. 16:50221253 %1025
1022
907
S 3 (9)
SSO - SW
>= 10000Stark bewölkt Cb (1500) 
LES EPLATURES
CH 1018
Do 19.05. 16:20231147 %1025
1022
907
WSW 3 (8)
SSW - WNW
>= 10000Leicht bewölkt Cb (1700) 
LES EPLATURES
CH 1018
Do 19.05. 15:50241350 %1025
1021
907
W 2 (6)
SSW - N
>= 10000  
LES EPLATURES
CH 1018
Do 19.05. 15:20221150 %1025
1022
907
W 3 (7)
SW - WNW
>= 10000  
LES EPLATURES
CH 1018
Do 19.05. 14:50231044 %1025
1022
907
WSW 3 (9)
SSW - W
>= 10000  
LES EPLATURES
CH 1018
Do 19.05. 14:20241144 %1025
1021
907
W 4 (12) - 6 (23)
SW - NW
>= 10000  
LES EPLATURES
CH 1018
Do 19.05. 13:50241041 %1025
1021
907
W 4 (12) - 6 (22)
SW - N
>= 10000  
LES EPLATURES
CH 1018
Do 19.05. 13:20231044 %1025
1022
907
WSW 4 (12)
SW - WNW
>= 10000Nicht signifikant 
LES EPLATURES
CH 1018
Do 19.05. 12:5024938 %1025
1021
907
SW 3 (9)
S - W
>= 10000Nicht signifikant 
LES EPLATURES
CH 1018
Do 19.05. 12:20241041 %1025
1021
907
SSW 3 (10)
O - W
>= 10000Nicht signifikant 
LES EPLATURES
CH 1018
Do 19.05. 11:50241041 %1025
1021
907
SSW 4 (11)
SSO - WSW
>= 10000Nicht signifikant 
LES EPLATURES
CH 1018
Do 19.05. 11:20231044 %1025
1022
907
SSW 4 (11)
SSO - WSW
>= 10000Nicht signifikant 
LES EPLATURES
CH 1018
Do 19.05. 10:50221046 %1025
1022
907
S 3 (10)
SSO - WSW
>= 10000Nicht signifikant 
LES EPLATURES
CH 1018
Do 19.05. 10:20211153 %1025
1023
907
SW 3 (7)
SSO - W
>= 10000Nicht signifikant 
LES EPLATURES
CH 1018
Do 19.05. 09:50211153 %1025
1023
907
SW 3 (8)
SSW - W
>= 10000Nicht signifikant 
LES EPLATURES
CH 1018
Do 19.05. 09:20211153 %1025
1023
907
SW 2 (6)
S - W
>= 10000Nicht signifikant 
LES EPLATURES
CH 1018
Do 19.05. 08:50201156 %1025
1023
907
Uml 2 (3)>= 10000Nicht signifikant 
LES EPLATURES
CH 1018
Do 19.05. 08:20191264 %1025
1023
907
Uml 2 (3)>= 10000  
LES EPLATURES
CH 1018
Do 19.05. 07:50181268 %1025
1024
907
SW 1 (2)>= 10000  
LES EPLATURES
CH 1018
Do 19.05. 07:20161277 %1024
1024
907
Uml 1 (1)>= 10000  
LES EPLATURES
CH 1018
Do 19.05. 06:50151177 %1024
1024
907
Uml 1 (1)>= 10000  
LES EPLATURES
CH 1018
Do 19.05. 06:20131082 %1024
1025
907
NW 1 (1)>= 10000  
LES EPLATURES
CH 1018
Do 19.05. 05:50141182 %1024
1025
907
Uml 1 (2)>= 10000  
LES EPLATURES
CH 1018
Do 19.05. 05:20131082 %1024
1025
907
Uml 1 (2)>= 10000  
LES EPLATURES
CH 1018
Do 19.05. 04:50131082 %1024
1025
907
WSW 1 (1)>= 10000  
LES EPLATURES
CH 1018
Do 19.05. 04:20131082 %1023
1024
906
Uml 1 (1)>= 10000  
LES EPLATURES
CH 1018
Do 19.05. 03:50141077 %1023
1024
906
Uml 1 (1)>= 10000  
LES EPLATURES
CH 1018
Do 19.05. 03:20131082 %1023
1024
906
WSW 1 (2)>= 10000  
LES EPLATURES
CH 1018
Do 19.05. 02:5013977 %1023
1024
906
Uml 1 (1)>= 10000  
LES EPLATURES
CH 1018
Do 19.05. 02:2013977 %1023
1024
906
Windstill>= 10000  
LES EPLATURES
CH 1018
Do 19.05. 01:5013977 %1024
1025
907
Windstill>= 10000  
LES EPLATURES
CH 1018
Do 19.05. 01:2013977 %1023
1024
906
Uml 1 (1)>= 10000  
LES EPLATURES
CH 1018
Do 19.05. 00:5014972 %1023
1024
906
Uml 1 (1)>= 10000  
LES EPLATURES
CH 1018
Do 19.05. 00:2013872 %1023
1024
906
Uml 1 (1)>= 10000  
LES EPLATURES
CH 1018
Mi 18.05. 23:50151072 %1023
1023
906
Uml 1 (2)>= 10000  
LES EPLATURES
CH 1018
Mi 18.05. 23:2014972 %1023
1024
906
Uml 1 (1)>= 10000  
LES EPLATURES
CH 1018
Mi 18.05. 22:50151072 %1023
1023
906
Windstill>= 10000  
LES EPLATURES
CH 1018
Mi 18.05. 22:20161068 %1023
1023
906
Uml 1 (1)>= 10000  
LES EPLATURES
CH 1018
Mi 18.05. 21:5016963 %1023
1023
906
Uml 1 (1)>= 10000  
LES EPLATURES
CH 1018
Mi 18.05. 21:2017959 %1023
1022
906
Uml 2 (3)>= 10000  
LES EPLATURES
CH 1018
Mi 18.05. 20:5018956 %1022
1021
905
NNO 2 (3)
NNW - O
>= 10000  
LES EPLATURES
CH 1018
Mi 18.05. 20:2020949 %1022
1020
905
Uml 1 (2)>= 10000  
LES EPLATURES
CH 1018
Mi 18.05. 19:5022841 %1022
1019
905
Uml 2 (3)>= 10000Nicht signifikant 
LES EPLATURES
CH 1018
Mi 18.05. 19:2022635 %1022
1019
905
O 2 (5)
ONO - SSO
>= 10000Nicht signifikant 
LES EPLATURES
CH 1018
Mi 18.05. 18:5023633 %1022
1019
905
OSO 2 (6)
NO - S
>= 10000Nicht signifikant 
LES EPLATURES
CH 1018
Mi 18.05. 18:2023838 %1022
1019
905
SO 2 (5)
NO - S
>= 10000Nicht signifikant 
LES EPLATURES
CH 1018
Mi 18.05. 17:5024836 %1022
1018
905
SSO 3 (7)
OSO - S
>= 10000Nicht signifikant 
LES EPLATURES
CH 1018
Mi 18.05. 17:2024734 %1022
1018
905
SO 2 (5)
O - SSW
>= 10000Nicht signifikant 
LES EPLATURES
CH 1018
Mi 18.05. 16:5024836 %1023
1019
906
SO 2 (5)
O - S
>= 10000  
LES EPLATURES
CH 1018
Mi 18.05. 16:2024836 %1023
1019
906
O 2 (4)
NNO - SSO
>= 10000  
LES EPLATURES
CH 1018
Mi 18.05. 15:5024836 %1023
1019
906
SSO 2 (4)
O - SW
>= 10000Nicht signifikant 
LES EPLATURES
CH 1018
Mi 18.05. 15:2023941 %1023
1020
906
Uml 2 (3)>= 10000Wolkig (1500) 

Altimeter: Einstellung am Altimeter (Höhenmesser), die Höhe 0 muss auf diesen Luftdruckwert zeigen, damit das Gerät die Stationshöhe richtig anzeigt.

NN: Luftdruck reduziert auf "Normal Null", auf Meereshöhe, dieser von der Temperatur abhängige Wert wird bisweilen unkorrekt einfach als "Luftdruck" bezeichnet. Eigentlich nur eine fiktive Größe, die es erlaubt, Stationen auf unterschiedlichen Höhen miteinander zu vergleichen.

Station: Realer Luftdruck an der Station.